sensor_id;sensor_type;location;lat;lon;timestamp;P1;durP1;ratioP1;P2;durP2;ratioP2
34928;SDS011;21133;48.048;7.724;2023-04-06T00:00:11;6.10;;;4.10;;
34928;SDS011;21133;48.048;7.724;2023-04-06T00:02:37;4.00;;;3.70;;
34928;SDS011;21133;48.048;7.724;2023-04-06T00:05:03;3.90;;;3.70;;
34928;SDS011;21133;48.048;7.724;2023-04-06T00:07:29;5.53;;;3.73;;
34928;SDS011;21133;48.048;7.724;2023-04-06T00:09:55;4.30;;;3.53;;
34928;SDS011;21133;48.048;7.724;2023-04-06T00:12:21;8.70;;;2.87;;
34928;SDS011;21133;48.048;7.724;2023-04-06T00:14:47;11.70;;;3.93;;
34928;SDS011;21133;48.048;7.724;2023-04-06T00:17:13;2.30;;;2.30;;
34928;SDS011;21133;48.048;7.724;2023-04-06T00:19:39;5.07;;;3.67;;
34928;SDS011;21133;48.048;7.724;2023-04-06T00:22:05;3.23;;;3.13;;
34928;SDS011;21133;48.048;7.724;2023-04-06T00:24:31;5.13;;;3.00;;
34928;SDS011;21133;48.048;7.724;2023-04-06T00:26:57;3.00;;;2.90;;
34928;SDS011;21133;48.048;7.724;2023-04-06T00:29:23;3.00;;;2.90;;
34928;SDS011;21133;48.048;7.724;2023-04-06T00:31:49;3.70;;;2.33;;
34928;SDS011;21133;48.048;7.724;2023-04-06T00:34:15;3.33;;;3.13;;
34928;SDS011;21133;48.048;7.724;2023-04-06T00:36:41;2.77;;;2.63;;
34928;SDS011;21133;48.048;7.724;2023-04-06T00:39:07;3.27;;;3.17;;
34928;SDS011;21133;48.048;7.724;2023-04-06T00:41:33;2.53;;;2.33;;
34928;SDS011;21133;48.048;7.724;2023-04-06T00:43:59;2.67;;;2.50;;
34928;SDS011;21133;48.048;7.724;2023-04-06T00:46:25;2.50;;;2.40;;
34928;SDS011;21133;48.048;7.724;2023-04-06T00:48:51;3.20;;;2.63;;
34928;SDS011;21133;48.048;7.724;2023-04-06T00:51:17;2.97;;;2.53;;
34928;SDS011;21133;48.048;7.724;2023-04-06T00:53:43;4.30;;;3.00;;
34928;SDS011;21133;48.048;7.724;2023-04-06T00:56:09;4.07;;;3.80;;
34928;SDS011;21133;48.048;7.724;2023-04-06T00:58:35;3.27;;;3.17;;
34928;SDS011;21133;48.048;7.724;2023-04-06T01:01:03;3.13;;;3.03;;
34928;SDS011;21133;48.048;7.724;2023-04-06T01:03:30;2.20;;;2.10;;
34928;SDS011;21133;48.048;7.724;2023-04-06T01:05:56;2.17;;;2.17;;
34928;SDS011;21133;48.048;7.724;2023-04-06T01:08:23;3.83;;;2.13;;
34928;SDS011;21133;48.048;7.724;2023-04-06T01:10:49;3.47;;;3.17;;
34928;SDS011;21133;48.048;7.724;2023-04-06T01:13:15;2.63;;;2.53;;
34928;SDS011;21133;48.048;7.724;2023-04-06T01:15:41;2.90;;;2.70;;
34928;SDS011;21133;48.048;7.724;2023-04-06T01:18:08;2.90;;;2.80;;
34928;SDS011;21133;48.048;7.724;2023-04-06T01:20:37;4.60;;;2.87;;
34928;SDS011;21133;48.048;7.724;2023-04-06T01:23:03;3.73;;;3.03;;
34928;SDS011;21133;48.048;7.724;2023-04-06T01:25:29;3.60;;;3.30;;
34928;SDS011;21133;48.048;7.724;2023-04-06T01:27:55;3.27;;;2.73;;
34928;SDS011;21133;48.048;7.724;2023-04-06T01:30:22;5.30;;;3.47;;
34928;SDS011;21133;48.048;7.724;2023-04-06T01:32:48;3.53;;;2.70;;
34928;SDS011;21133;48.048;7.724;2023-04-06T01:35:15;3.10;;;2.90;;
34928;SDS011;21133;48.048;7.724;2023-04-06T01:37:41;3.07;;;2.87;;
34928;SDS011;21133;48.048;7.724;2023-04-06T01:40:07;9.20;;;3.53;;
34928;SDS011;21133;48.048;7.724;2023-04-06T01:42:33;3.77;;;3.57;;
34928;SDS011;21133;48.048;7.724;2023-04-06T01:44:59;3.60;;;3.50;;
34928;SDS011;21133;48.048;7.724;2023-04-06T01:47:25;3.10;;;3.00;;
34928;SDS011;21133;48.048;7.724;2023-04-06T01:49:51;2.60;;;2.50;;
34928;SDS011;21133;48.048;7.724;2023-04-06T01:52:17;2.73;;;2.63;;
34928;SDS011;21133;48.048;7.724;2023-04-06T01:54:43;3.10;;;2.90;;
34928;SDS011;21133;48.048;7.724;2023-04-06T01:57:10;2.87;;;2.33;;
34928;SDS011;21133;48.048;7.724;2023-04-06T01:59:36;3.47;;;3.27;;
34928;SDS011;21133;48.048;7.724;2023-04-06T02:02:02;2.80;;;2.70;;
34928;SDS011;21133;48.048;7.724;2023-04-06T02:04:27;2.70;;;2.60;;
34928;SDS011;21133;48.048;7.724;2023-04-06T02:06:53;9.47;;;3.00;;
34928;SDS011;21133;48.048;7.724;2023-04-06T02:09:19;2.77;;;2.77;;
34928;SDS011;21133;48.048;7.724;2023-04-06T02:11:45;2.60;;;2.50;;
34928;SDS011;21133;48.048;7.724;2023-04-06T02:14:11;2.90;;;2.77;;
34928;SDS011;21133;48.048;7.724;2023-04-06T02:16:37;2.70;;;2.60;;
34928;SDS011;21133;48.048;7.724;2023-04-06T02:19:03;2.67;;;2.47;;
34928;SDS011;21133;48.048;7.724;2023-04-06T02:21:29;2.87;;;2.77;;
34928;SDS011;21133;48.048;7.724;2023-04-06T02:23:55;2.70;;;2.70;;
34928;SDS011;21133;48.048;7.724;2023-04-06T02:26:21;3.23;;;2.73;;
34928;SDS011;21133;48.048;7.724;2023-04-06T02:28:48;3.03;;;2.70;;
34928;SDS011;21133;48.048;7.724;2023-04-06T02:31:14;2.87;;;2.60;;
34928;SDS011;21133;48.048;7.724;2023-04-06T02:33:41;2.80;;;2.70;;
34928;SDS011;21133;48.048;7.724;2023-04-06T02:36:06;2.60;;;2.50;;
34928;SDS011;21133;48.048;7.724;2023-04-06T02:38:33;2.67;;;2.60;;
34928;SDS011;21133;48.048;7.724;2023-04-06T02:40:58;3.53;;;3.00;;
34928;SDS011;21133;48.048;7.724;2023-04-06T02:43:25;5.13;;;3.13;;
34928;SDS011;21133;48.048;7.724;2023-04-06T02:45:51;3.00;;;2.80;;
34928;SDS011;21133;48.048;7.724;2023-04-06T02:48:17;2.67;;;2.47;;
34928;SDS011;21133;48.048;7.724;2023-04-06T02:50:43;2.03;;;2.03;;
34928;SDS011;21133;48.048;7.724;2023-04-06T02:53:09;13.13;;;5.63;;
34928;SDS011;21133;48.048;7.724;2023-04-06T02:55:35;5.63;;;3.50;;
34928;SDS011;21133;48.048;7.724;2023-04-06T02:58:01;6.30;;;3.53;;
34928;SDS011;21133;48.048;7.724;2023-04-06T03:00:27;6.67;;;4.20;;
34928;SDS011;21133;48.048;7.724;2023-04-06T03:02:53;3.70;;;3.40;;
34928;SDS011;21133;48.048;7.724;2023-04-06T03:05:19;4.60;;;3.43;;
34928;SDS011;21133;48.048;7.724;2023-04-06T03:07:45;3.30;;;3.17;;
34928;SDS011;21133;48.048;7.724;2023-04-06T03:10:11;5.20;;;3.10;;
34928;SDS011;21133;48.048;7.724;2023-04-06T03:12:37;6.80;;;3.50;;
34928;SDS011;21133;48.048;7.724;2023-04-06T03:15:03;4.23;;;2.90;;
34928;SDS011;21133;48.048;7.724;2023-04-06T03:17:30;2.87;;;2.67;;
34928;SDS011;21133;48.048;7.724;2023-04-06T03:19:56;3.17;;;2.97;;
34928;SDS011;21133;48.048;7.724;2023-04-06T03:22:21;2.87;;;2.63;;
34928;SDS011;21133;48.048;7.724;2023-04-06T03:24:47;3.03;;;2.83;;
34928;SDS011;21133;48.048;7.724;2023-04-06T03:27:13;4.93;;;2.87;;
34928;SDS011;21133;48.048;7.724;2023-04-06T03:29:39;2.43;;;2.23;;
34928;SDS011;21133;48.048;7.724;2023-04-06T03:32:05;3.30;;;3.00;;
34928;SDS011;21133;48.048;7.724;2023-04-06T03:34:31;2.70;;;2.50;;
34928;SDS011;21133;48.048;7.724;2023-04-06T03:36:57;3.20;;;3.00;;
34928;SDS011;21133;48.048;7.724;2023-04-06T03:39:23;2.93;;;2.80;;
34928;SDS011;21133;48.048;7.724;2023-04-06T03:41:49;2.67;;;2.57;;
34928;SDS011;21133;48.048;7.724;2023-04-06T03:44:15;2.90;;;2.80;;
34928;SDS011;21133;48.048;7.724;2023-04-06T03:46:41;8.83;;;3.53;;
34928;SDS011;21133;48.048;7.724;2023-04-06T03:49:07;2.43;;;2.20;;
34928;SDS011;21133;48.048;7.724;2023-04-06T03:51:33;2.53;;;2.43;;
34928;SDS011;21133;48.048;7.724;2023-04-06T03:53:59;3.87;;;2.77;;
34928;SDS011;21133;48.048;7.724;2023-04-06T03:56:25;2.50;;;2.40;;
34928;SDS011;21133;48.048;7.724;2023-04-06T03:58:51;3.03;;;2.83;;
34928;SDS011;21133;48.048;7.724;2023-04-06T04:01:17;3.13;;;2.93;;
34928;SDS011;21133;48.048;7.724;2023-04-06T04:03:43;5.57;;;2.97;;
34928;SDS011;21133;48.048;7.724;2023-04-06T04:06:09;2.67;;;2.57;;
34928;SDS011;21133;48.048;7.724;2023-04-06T04:08:35;3.33;;;3.13;;
34928;SDS011;21133;48.048;7.724;2023-04-06T04:11:01;3.30;;;2.80;;
34928;SDS011;21133;48.048;7.724;2023-04-06T04:13:27;3.23;;;3.10;;
34928;SDS011;21133;48.048;7.724;2023-04-06T04:15:53;2.77;;;2.67;;
34928;SDS011;21133;48.048;7.724;2023-04-06T04:18:19;6.60;;;3.33;;
34928;SDS011;21133;48.048;7.724;2023-04-06T04:20:45;2.77;;;2.67;;
34928;SDS011;21133;48.048;7.724;2023-04-06T04:23:11;3.03;;;2.93;;
34928;SDS011;21133;48.048;7.724;2023-04-06T04:25:37;4.10;;;2.57;;
34928;SDS011;21133;48.048;7.724;2023-04-06T04:28:03;2.40;;;2.30;;
34928;SDS011;21133;48.048;7.724;2023-04-06T04:30:29;3.37;;;3.13;;
34928;SDS011;21133;48.048;7.724;2023-04-06T04:32:55;3.30;;;2.97;;
34928;SDS011;21133;48.048;7.724;2023-04-06T04:35:21;2.87;;;2.70;;
34928;SDS011;21133;48.048;7.724;2023-04-06T04:37:47;4.17;;;2.97;;
34928;SDS011;21133;48.048;7.724;2023-04-06T04:40:13;3.17;;;2.97;;
34928;SDS011;21133;48.048;7.724;2023-04-06T04:42:40;3.17;;;2.97;;
34928;SDS011;21133;48.048;7.724;2023-04-06T04:45:06;2.70;;;2.53;;
34928;SDS011;21133;48.048;7.724;2023-04-06T04:47:32;3.03;;;2.93;;
34928;SDS011;21133;48.048;7.724;2023-04-06T04:49:58;4.20;;;3.07;;
34928;SDS011;21133;48.048;7.724;2023-04-06T04:52:24;3.77;;;3.37;;
34928;SDS011;21133;48.048;7.724;2023-04-06T04:54:50;14.73;;;6.60;;
34928;SDS011;21133;48.048;7.724;2023-04-06T04:57:16;8.73;;;6.20;;
34928;SDS011;21133;48.048;7.724;2023-04-06T04:59:42;8.00;;;3.23;;
34928;SDS011;21133;48.048;7.724;2023-04-06T05:02:08;3.73;;;3.43;;
34928;SDS011;21133;48.048;7.724;2023-04-06T05:04:35;4.93;;;4.10;;
34928;SDS011;21133;48.048;7.724;2023-04-06T05:07:04;3.93;;;3.53;;
34928;SDS011;21133;48.048;7.724;2023-04-06T05:09:30;5.37;;;4.87;;
34928;SDS011;21133;48.048;7.724;2023-04-06T05:11:56;4.10;;;3.70;;
34928;SDS011;21133;48.048;7.724;2023-04-06T05:14:22;3.43;;;3.13;;
34928;SDS011;21133;48.048;7.724;2023-04-06T05:16:48;8.80;;;3.60;;
34928;SDS011;21133;48.048;7.724;2023-04-06T05:19:14;9.53;;;3.50;;
34928;SDS011;21133;48.048;7.724;2023-04-06T05:21:41;3.03;;;2.90;;
34928;SDS011;21133;48.048;7.724;2023-04-06T05:24:07;4.83;;;3.87;;
34928;SDS011;21133;48.048;7.724;2023-04-06T05:26:33;4.40;;;3.90;;
34928;SDS011;21133;48.048;7.724;2023-04-06T05:28:59;3.33;;;3.10;;
34928;SDS011;21133;48.048;7.724;2023-04-06T05:31:25;4.37;;;3.57;;
34928;SDS011;21133;48.048;7.724;2023-04-06T05:33:51;2.63;;;2.53;;
34928;SDS011;21133;48.048;7.724;2023-04-06T05:36:17;2.33;;;2.23;;
34928;SDS011;21133;48.048;7.724;2023-04-06T05:38:43;2.50;;;2.40;;
34928;SDS011;21133;48.048;7.724;2023-04-06T05:41:09;11.07;;;4.83;;
34928;SDS011;21133;48.048;7.724;2023-04-06T05:43:36;2.60;;;2.50;;
34928;SDS011;21133;48.048;7.724;2023-04-06T05:46:02;2.47;;;2.37;;
34928;SDS011;21133;48.048;7.724;2023-04-06T05:48:28;4.30;;;3.93;;
34928;SDS011;21133;48.048;7.724;2023-04-06T05:50:54;2.90;;;2.70;;
34928;SDS011;21133;48.048;7.724;2023-04-06T05:53:20;2.93;;;2.80;;
34928;SDS011;21133;48.048;7.724;2023-04-06T05:55:46;3.33;;;3.13;;
34928;SDS011;21133;48.048;7.724;2023-04-06T05:58:12;4.73;;;4.10;;
34928;SDS011;21133;48.048;7.724;2023-04-06T06:00:38;6.80;;;6.17;;
34928;SDS011;21133;48.048;7.724;2023-04-06T06:03:04;5.47;;;5.07;;
34928;SDS011;21133;48.048;7.724;2023-04-06T06:05:31;12.57;;;8.50;;
34928;SDS011;21133;48.048;7.724;2023-04-06T06:07:56;24.43;;;13.83;;
34928;SDS011;21133;48.048;7.724;2023-04-06T06:10:22;10.40;;;8.60;;
34928;SDS011;21133;48.048;7.724;2023-04-06T06:12:48;8.23;;;7.17;;
34928;SDS011;21133;48.048;7.724;2023-04-06T06:15:15;10.50;;;7.87;;
34928;SDS011;21133;48.048;7.724;2023-04-06T06:17:41;8.50;;;6.03;;
34928;SDS011;21133;48.048;7.724;2023-04-06T06:20:07;6.60;;;5.30;;
34928;SDS011;21133;48.048;7.724;2023-04-06T06:22:33;7.53;;;5.90;;
34928;SDS011;21133;48.048;7.724;2023-04-06T06:24:59;4.33;;;4.03;;
34928;SDS011;21133;48.048;7.724;2023-04-06T06:27:25;4.07;;;3.57;;
34928;SDS011;21133;48.048;7.724;2023-04-06T06:29:51;3.97;;;3.67;;
34928;SDS011;21133;48.048;7.724;2023-04-06T06:32:17;5.97;;;5.27;;
34928;SDS011;21133;48.048;7.724;2023-04-06T06:34:43;8.83;;;8.00;;
34928;SDS011;21133;48.048;7.724;2023-04-06T06:37:09;9.73;;;8.60;;
34928;SDS011;21133;48.048;7.724;2023-04-06T06:39:35;8.67;;;5.93;;
34928;SDS011;21133;48.048;7.724;2023-04-06T06:42:01;7.03;;;6.23;;
34928;SDS011;21133;48.048;7.724;2023-04-06T06:44:28;5.20;;;4.80;;
34928;SDS011;21133;48.048;7.724;2023-04-06T06:46:54;4.67;;;4.27;;
34928;SDS011;21133;48.048;7.724;2023-04-06T06:49:20;4.73;;;4.30;;
34928;SDS011;21133;48.048;7.724;2023-04-06T06:51:46;4.20;;;3.60;;
34928;SDS011;21133;48.048;7.724;2023-04-06T06:54:12;5.90;;;3.50;;
34928;SDS011;21133;48.048;7.724;2023-04-06T06:56:38;3.90;;;3.60;;
34928;SDS011;21133;48.048;7.724;2023-04-06T06:59:05;3.83;;;3.63;;
34928;SDS011;21133;48.048;7.724;2023-04-06T07:01:32;5.27;;;4.50;;
34928;SDS011;21133;48.048;7.724;2023-04-06T07:03:58;6.83;;;3.30;;
34928;SDS011;21133;48.048;7.724;2023-04-06T07:06:24;3.27;;;3.00;;
34928;SDS011;21133;48.048;7.724;2023-04-06T07:08:50;2.57;;;2.47;;
34928;SDS011;21133;48.048;7.724;2023-04-06T07:11:16;2.87;;;2.70;;
34928;SDS011;21133;48.048;7.724;2023-04-06T07:13:42;3.30;;;3.20;;
34928;SDS011;21133;48.048;7.724;2023-04-06T07:16:08;5.17;;;4.70;;
34928;SDS011;21133;48.048;7.724;2023-04-06T07:18:34;11.10;;;3.80;;
34928;SDS011;21133;48.048;7.724;2023-04-06T07:21:00;4.10;;;3.70;;
34928;SDS011;21133;48.048;7.724;2023-04-06T07:23:26;4.40;;;4.20;;
34928;SDS011;21133;48.048;7.724;2023-04-06T07:25:52;3.97;;;3.53;;
34928;SDS011;21133;48.048;7.724;2023-04-06T07:28:19;4.57;;;2.77;;
34928;SDS011;21133;48.048;7.724;2023-04-06T07:30:45;4.20;;;4.00;;
34928;SDS011;21133;48.048;7.724;2023-04-06T07:33:11;5.60;;;3.87;;
34928;SDS011;21133;48.048;7.724;2023-04-06T07:35:37;3.27;;;3.07;;
34928;SDS011;21133;48.048;7.724;2023-04-06T07:38:04;3.17;;;3.07;;
34928;SDS011;21133;48.048;7.724;2023-04-06T07:40:30;3.70;;;3.40;;
34928;SDS011;21133;48.048;7.724;2023-04-06T07:42:57;4.00;;;3.87;;
34928;SDS011;21133;48.048;7.724;2023-04-06T07:45:23;3.70;;;3.50;;
34928;SDS011;21133;48.048;7.724;2023-04-06T07:47:49;4.63;;;4.33;;
34928;SDS011;21133;48.048;7.724;2023-04-06T07:50:15;4.63;;;4.33;;
34928;SDS011;21133;48.048;7.724;2023-04-06T07:52:41;4.03;;;3.83;;
34928;SDS011;21133;48.048;7.724;2023-04-06T07:55:08;4.50;;;4.20;;
34928;SDS011;21133;48.048;7.724;2023-04-06T07:57:34;4.40;;;4.10;;
34928;SDS011;21133;48.048;7.724;2023-04-06T08:00:00;4.73;;;4.37;;
34928;SDS011;21133;48.048;7.724;2023-04-06T08:02:26;4.63;;;3.20;;
34928;SDS011;21133;48.048;7.724;2023-04-06T08:04:51;6.93;;;4.10;;
34928;SDS011;21133;48.048;7.724;2023-04-06T08:07:17;3.97;;;3.87;;
34928;SDS011;21133;48.048;7.724;2023-04-06T08:09:43;4.20;;;4.10;;
34928;SDS011;21133;48.048;7.724;2023-04-06T08:12:09;3.80;;;3.63;;
34928;SDS011;21133;48.048;7.724;2023-04-06T08:14:35;4.40;;;4.20;;
34928;SDS011;21133;48.048;7.724;2023-04-06T08:17:01;5.10;;;4.90;;
34928;SDS011;21133;48.048;7.724;2023-04-06T08:19:27;3.80;;;3.60;;
34928;SDS011;21133;48.048;7.724;2023-04-06T08:21:53;3.90;;;3.57;;
34928;SDS011;21133;48.048;7.724;2023-04-06T08:24:19;4.00;;;3.40;;
34928;SDS011;21133;48.048;7.724;2023-04-06T08:26:45;6.37;;;3.70;;
34928;SDS011;21133;48.048;7.724;2023-04-06T08:29:11;5.60;;;5.30;;
34928;SDS011;21133;48.048;7.724;2023-04-06T08:31:37;7.50;;;4.20;;
34928;SDS011;21133;48.048;7.724;2023-04-06T08:34:03;4.23;;;4.03;;
34928;SDS011;21133;48.048;7.724;2023-04-06T08:36:30;8.60;;;4.13;;
34928;SDS011;21133;48.048;7.724;2023-04-06T08:38:56;6.23;;;4.23;;
34928;SDS011;21133;48.048;7.724;2023-04-06T08:41:22;4.27;;;3.97;;
34928;SDS011;21133;48.048;7.724;2023-04-06T08:43:49;3.70;;;3.40;;
34928;SDS011;21133;48.048;7.724;2023-04-06T08:46:15;4.00;;;3.90;;
34928;SDS011;21133;48.048;7.724;2023-04-06T08:48:42;4.63;;;4.43;;
34928;SDS011;21133;48.048;7.724;2023-04-06T08:51:09;5.13;;;4.60;;
34928;SDS011;21133;48.048;7.724;2023-04-06T08:53:35;4.57;;;4.17;;
34928;SDS011;21133;48.048;7.724;2023-04-06T08:56:03;7.53;;;3.90;;
34928;SDS011;21133;48.048;7.724;2023-04-06T08:58:32;5.43;;;4.27;;
34928;SDS011;21133;48.048;7.724;2023-04-06T09:00:58;4.30;;;4.20;;
34928;SDS011;21133;48.048;7.724;2023-04-06T09:03:25;8.13;;;4.30;;
34928;SDS011;21133;48.048;7.724;2023-04-06T09:05:51;4.87;;;4.57;;
34928;SDS011;21133;48.048;7.724;2023-04-06T09:08:17;4.43;;;4.23;;
34928;SDS011;21133;48.048;7.724;2023-04-06T09:10:43;5.00;;;4.60;;
34928;SDS011;21133;48.048;7.724;2023-04-06T09:13:10;3.83;;;3.53;;
34928;SDS011;21133;48.048;7.724;2023-04-06T09:15:36;5.93;;;3.80;;
34928;SDS011;21133;48.048;7.724;2023-04-06T09:18:02;3.73;;;3.63;;
34928;SDS011;21133;48.048;7.724;2023-04-06T09:20:28;3.83;;;3.57;;
34928;SDS011;21133;48.048;7.724;2023-04-06T09:22:54;7.33;;;4.03;;
34928;SDS011;21133;48.048;7.724;2023-04-06T09:25:21;4.10;;;3.80;;
34928;SDS011;21133;48.048;7.724;2023-04-06T09:27:48;3.97;;;3.77;;
34928;SDS011;21133;48.048;7.724;2023-04-06T09:30:15;3.33;;;3.20;;
34928;SDS011;21133;48.048;7.724;2023-04-06T09:32:51;4.53;;;4.10;;
34928;SDS011;21133;48.048;7.724;2023-04-06T09:35:18;4.77;;;4.37;;
34928;SDS011;21133;48.048;7.724;2023-04-06T09:37:47;6.67;;;4.43;;
34928;SDS011;21133;48.048;7.724;2023-04-06T09:40:14;4.57;;;3.83;;
34928;SDS011;21133;48.048;7.724;2023-04-06T09:42:42;3.40;;;3.10;;
34928;SDS011;21133;48.048;7.724;2023-04-06T09:45:08;9.00;;;3.37;;
34928;SDS011;21133;48.048;7.724;2023-04-06T09:47:35;3.93;;;3.83;;
34928;SDS011;21133;48.048;7.724;2023-04-06T09:50:02;4.73;;;4.30;;
34928;SDS011;21133;48.048;7.724;2023-04-06T09:52:31;3.90;;;3.50;;
34928;SDS011;21133;48.048;7.724;2023-04-06T09:55:02;4.63;;;3.70;;
34928;SDS011;21133;48.048;7.724;2023-04-06T09:57:30;4.10;;;3.73;;
34928;SDS011;21133;48.048;7.724;2023-04-06T10:00:02;5.37;;;4.37;;
34928;SDS011;21133;48.048;7.724;2023-04-06T10:05:00;5.30;;;4.77;;
34928;SDS011;21133;48.048;7.724;2023-04-06T10:07:27;5.23;;;4.50;;
34928;SDS011;21133;48.048;7.724;2023-04-06T10:09:54;4.77;;;4.33;;
34928;SDS011;21133;48.048;7.724;2023-04-06T10:12:20;4.30;;;4.20;;
34928;SDS011;21133;48.048;7.724;2023-04-06T10:14:46;3.63;;;3.43;;
34928;SDS011;21133;48.048;7.724;2023-04-06T10:17:13;5.70;;;5.17;;
34928;SDS011;21133;48.048;7.724;2023-04-06T10:19:41;7.37;;;5.07;;
34928;SDS011;21133;48.048;7.724;2023-04-06T10:22:10;7.13;;;4.37;;
34928;SDS011;21133;48.048;7.724;2023-04-06T10:24:38;4.67;;;4.30;;
34928;SDS011;21133;48.048;7.724;2023-04-06T10:27:04;9.63;;;6.90;;
34928;SDS011;21133;48.048;7.724;2023-04-06T10:29:47;6.80;;;5.23;;
34928;SDS011;21133;48.048;7.724;2023-04-06T10:32:16;11.53;;;6.40;;
34928;SDS011;21133;48.048;7.724;2023-04-06T10:34:42;9.33;;;5.20;;
34928;SDS011;21133;48.048;7.724;2023-04-06T10:37:15;4.63;;;4.30;;
34928;SDS011;21133;48.048;7.724;2023-04-06T10:39:47;5.70;;;3.90;;
34928;SDS011;21133;48.048;7.724;2023-04-06T10:42:23;4.50;;;3.77;;
34928;SDS011;21133;48.048;7.724;2023-04-06T10:44:50;4.57;;;4.20;;
34928;SDS011;21133;48.048;7.724;2023-04-06T10:47:16;3.47;;;3.27;;
34928;SDS011;21133;48.048;7.724;2023-04-06T10:49:43;4.10;;;3.67;;
34928;SDS011;21133;48.048;7.724;2023-04-06T10:52:09;4.90;;;3.53;;
34928;SDS011;21133;48.048;7.724;2023-04-06T10:54:36;3.80;;;3.60;;
34928;SDS011;21133;48.048;7.724;2023-04-06T10:57:05;3.30;;;3.10;;
34928;SDS011;21133;48.048;7.724;2023-04-06T10:59:31;4.00;;;3.50;;
34928;SDS011;21133;48.048;7.724;2023-04-06T11:01:57;3.80;;;3.70;;
34928;SDS011;21133;48.048;7.724;2023-04-06T11:04:24;5.20;;;4.73;;
34928;SDS011;21133;48.048;7.724;2023-04-06T11:06:51;14.43;;;7.07;;
34928;SDS011;21133;48.048;7.724;2023-04-06T11:09:29;6.20;;;4.53;;
34928;SDS011;21133;48.048;7.724;2023-04-06T11:12:00;4.47;;;4.27;;
34928;SDS011;21133;48.048;7.724;2023-04-06T11:14:26;4.70;;;4.30;;
34928;SDS011;21133;48.048;7.724;2023-04-06T11:16:52;4.50;;;4.10;;
34928;SDS011;21133;48.048;7.724;2023-04-06T11:19:18;4.97;;;4.47;;
34928;SDS011;21133;48.048;7.724;2023-04-06T11:21:45;8.10;;;4.00;;
34928;SDS011;21133;48.048;7.724;2023-04-06T11:24:15;5.93;;;5.13;;
34928;SDS011;21133;48.048;7.724;2023-04-06T11:26:42;4.83;;;4.30;;
34928;SDS011;21133;48.048;7.724;2023-04-06T11:29:09;3.83;;;3.40;;
34928;SDS011;21133;48.048;7.724;2023-04-06T11:31:39;4.43;;;4.03;;
34928;SDS011;21133;48.048;7.724;2023-04-06T11:34:08;3.43;;;3.27;;
34928;SDS011;21133;48.048;7.724;2023-04-06T11:36:35;3.10;;;2.90;;
34928;SDS011;21133;48.048;7.724;2023-04-06T11:39:02;3.83;;;3.63;;
34928;SDS011;21133;48.048;7.724;2023-04-06T11:41:30;3.27;;;3.07;;
34928;SDS011;21133;48.048;7.724;2023-04-06T11:43:58;3.50;;;3.20;;
34928;SDS011;21133;48.048;7.724;2023-04-06T11:46:26;4.10;;;3.80;;
34928;SDS011;21133;48.048;7.724;2023-04-06T11:48:52;4.00;;;3.80;;
34928;SDS011;21133;48.048;7.724;2023-04-06T11:51:23;6.40;;;4.73;;
34928;SDS011;21133;48.048;7.724;2023-04-06T11:53:49;3.60;;;3.43;;
34928;SDS011;21133;48.048;7.724;2023-04-06T11:56:25;3.43;;;3.20;;
34928;SDS011;21133;48.048;7.724;2023-04-06T11:58:52;4.40;;;3.60;;
34928;SDS011;21133;48.048;7.724;2023-04-06T12:01:18;3.57;;;3.47;;
34928;SDS011;21133;48.048;7.724;2023-04-06T12:03:44;3.40;;;3.20;;
34928;SDS011;21133;48.048;7.724;2023-04-06T12:06:10;3.80;;;3.60;;
34928;SDS011;21133;48.048;7.724;2023-04-06T12:08:36;3.93;;;3.60;;
34928;SDS011;21133;48.048;7.724;2023-04-06T12:11:02;8.13;;;3.43;;
34928;SDS011;21133;48.048;7.724;2023-04-06T12:13:28;3.50;;;3.27;;
34928;SDS011;21133;48.048;7.724;2023-04-06T12:15:54;6.07;;;4.83;;
34928;SDS011;21133;48.048;7.724;2023-04-06T12:18:20;5.97;;;4.60;;
34928;SDS011;21133;48.048;7.724;2023-04-06T12:20:46;6.03;;;4.00;;
34928;SDS011;21133;48.048;7.724;2023-04-06T12:23:12;4.80;;;4.27;;
34928;SDS011;21133;48.048;7.724;2023-04-06T12:25:39;3.13;;;3.03;;
34928;SDS011;21133;48.048;7.724;2023-04-06T12:28:06;4.60;;;4.17;;
34928;SDS011;21133;48.048;7.724;2023-04-06T12:30:32;5.40;;;3.50;;
34928;SDS011;21133;48.048;7.724;2023-04-06T12:32:58;3.97;;;3.67;;
34928;SDS011;21133;48.048;7.724;2023-04-06T12:35:24;4.13;;;3.80;;
34928;SDS011;21133;48.048;7.724;2023-04-06T12:37:50;4.00;;;3.73;;
34928;SDS011;21133;48.048;7.724;2023-04-06T12:40:16;3.90;;;3.70;;
34928;SDS011;21133;48.048;7.724;2023-04-06T12:42:42;2.60;;;2.50;;
34928;SDS011;21133;48.048;7.724;2023-04-06T12:45:08;3.60;;;3.40;;
34928;SDS011;21133;48.048;7.724;2023-04-06T12:47:35;2.97;;;2.60;;
34928;SDS011;21133;48.048;7.724;2023-04-06T12:50:01;3.03;;;2.67;;
34928;SDS011;21133;48.048;7.724;2023-04-06T12:52:27;2.93;;;2.70;;
34928;SDS011;21133;48.048;7.724;2023-04-06T12:54:56;3.60;;;3.30;;
34928;SDS011;21133;48.048;7.724;2023-04-06T12:57:23;3.27;;;3.17;;
34928;SDS011;21133;48.048;7.724;2023-04-06T12:59:49;3.60;;;3.50;;
34928;SDS011;21133;48.048;7.724;2023-04-06T13:02:16;2.70;;;2.50;;
34928;SDS011;21133;48.048;7.724;2023-04-06T13:04:42;2.67;;;2.50;;
34928;SDS011;21133;48.048;7.724;2023-04-06T13:07:08;4.37;;;3.00;;
34928;SDS011;21133;48.048;7.724;2023-04-06T13:09:34;2.77;;;2.67;;
34928;SDS011;21133;48.048;7.724;2023-04-06T13:12:00;2.07;;;1.97;;
34928;SDS011;21133;48.048;7.724;2023-04-06T13:14:26;2.97;;;2.23;;
34928;SDS011;21133;48.048;7.724;2023-04-06T13:16:52;2.57;;;2.47;;
34928;SDS011;21133;48.048;7.724;2023-04-06T13:19:18;6.43;;;3.10;;
34928;SDS011;21133;48.048;7.724;2023-04-06T13:21:44;2.77;;;2.67;;
34928;SDS011;21133;48.048;7.724;2023-04-06T13:24:10;5.33;;;2.87;;
34928;SDS011;21133;48.048;7.724;2023-04-06T13:26:36;3.13;;;3.03;;
34928;SDS011;21133;48.048;7.724;2023-04-06T13:29:02;3.00;;;2.90;;
34928;SDS011;21133;48.048;7.724;2023-04-06T13:31:29;3.43;;;3.13;;
34928;SDS011;21133;48.048;7.724;2023-04-06T13:33:55;7.90;;;3.80;;
34928;SDS011;21133;48.048;7.724;2023-04-06T13:36:21;2.53;;;2.43;;
34928;SDS011;21133;48.048;7.724;2023-04-06T13:38:47;3.03;;;2.93;;
34928;SDS011;21133;48.048;7.724;2023-04-06T13:41:23;3.03;;;2.83;;
34928;SDS011;21133;48.048;7.724;2023-04-06T13:43:50;3.77;;;2.80;;
34928;SDS011;21133;48.048;7.724;2023-04-06T13:46:16;3.60;;;3.23;;
34928;SDS011;21133;48.048;7.724;2023-04-06T13:48:42;3.23;;;3.03;;
34928;SDS011;21133;48.048;7.724;2023-04-06T13:51:11;2.17;;;2.07;;
34928;SDS011;21133;48.048;7.724;2023-04-06T13:53:38;4.00;;;3.17;;
34928;SDS011;21133;48.048;7.724;2023-04-06T13:56:04;2.93;;;2.83;;
34928;SDS011;21133;48.048;7.724;2023-04-06T13:58:30;4.20;;;3.20;;
34928;SDS011;21133;48.048;7.724;2023-04-06T14:01:03;2.87;;;2.70;;
34928;SDS011;21133;48.048;7.724;2023-04-06T14:03:30;2.83;;;2.73;;
34928;SDS011;21133;48.048;7.724;2023-04-06T14:05:56;15.20;;;4.37;;
34928;SDS011;21133;48.048;7.724;2023-04-06T14:08:22;9.83;;;2.97;;
34928;SDS011;21133;48.048;7.724;2023-04-06T14:10:48;3.03;;;2.40;;
34928;SDS011;21133;48.048;7.724;2023-04-06T14:13:14;6.43;;;4.50;;
34928;SDS011;21133;48.048;7.724;2023-04-06T14:15:40;4.37;;;3.00;;
34928;SDS011;21133;48.048;7.724;2023-04-06T14:18:07;4.53;;;3.13;;
34928;SDS011;21133;48.048;7.724;2023-04-06T14:20:33;2.83;;;2.63;;
34928;SDS011;21133;48.048;7.724;2023-04-06T14:23:00;3.20;;;3.00;;
34928;SDS011;21133;48.048;7.724;2023-04-06T14:25:26;3.47;;;3.20;;
34928;SDS011;21133;48.048;7.724;2023-04-06T14:27:52;5.83;;;3.00;;
34928;SDS011;21133;48.048;7.724;2023-04-06T14:30:18;5.20;;;3.17;;
34928;SDS011;21133;48.048;7.724;2023-04-06T14:32:44;3.10;;;1.90;;
34928;SDS011;21133;48.048;7.724;2023-04-06T14:35:10;3.50;;;2.47;;
34928;SDS011;21133;48.048;7.724;2023-04-06T14:37:36;3.00;;;2.87;;
34928;SDS011;21133;48.048;7.724;2023-04-06T14:40:02;2.93;;;2.83;;
34928;SDS011;21133;48.048;7.724;2023-04-06T14:42:28;2.87;;;2.77;;
34928;SDS011;21133;48.048;7.724;2023-04-06T14:44:55;7.50;;;4.23;;